createdAt,value
2019-01-29T00:01:43.801Z,25.20
2019-01-29T00:04:15.992Z,25.80
2019-01-29T00:06:48.006Z,23.00
2019-01-29T00:09:20.052Z,27.60
2019-01-29T00:11:52.238Z,24.80
2019-01-29T00:14:24.282Z,25.40
2019-01-29T00:16:56.325Z,24.80
2019-01-29T00:19:28.884Z,21.40
2019-01-29T00:22:00.973Z,25.00
2019-01-29T00:24:33.255Z,23.60
2019-01-29T00:27:05.472Z,23.20
2019-01-29T00:29:38.157Z,23.00
2019-01-29T00:32:10.407Z,24.20
2019-01-29T00:34:42.662Z,22.60
2019-01-29T00:37:14.726Z,23.60
2019-01-29T00:39:46.744Z,22.40
2019-01-29T00:42:18.757Z,24.60
2019-01-29T00:44:50.802Z,20.40
2019-01-29T00:47:23.643Z,22.60
2019-01-29T00:49:55.705Z,21.60
2019-01-29T00:52:29.739Z,20.80
2019-01-29T00:55:01.825Z,21.00
2019-01-29T00:57:33.883Z,21.20
2019-01-29T01:00:11.355Z,23.60
2019-01-29T01:02:43.423Z,19.40
2019-01-29T01:05:15.714Z,20.60
2019-01-29T01:07:47.817Z,21.60
2019-01-29T01:10:23.053Z,22.60
2019-01-29T01:12:57.761Z,21.80
2019-01-29T01:15:29.866Z,20.80
2019-01-29T01:18:01.932Z,19.80
2019-01-29T01:20:34.384Z,22.00
2019-01-29T01:23:06.403Z,19.80
2019-01-29T01:25:38.427Z,22.20
2019-01-29T01:28:10.478Z,17.40
2019-01-29T01:30:42.511Z,21.20
2019-01-29T01:33:14.504Z,23.00
2019-01-29T01:35:46.577Z,21.00
2019-01-29T01:38:18.554Z,19.80
2019-01-29T01:40:50.582Z,21.40
2019-01-29T01:43:22.603Z,18.00
2019-01-29T01:45:55.045Z,19.60
2019-01-29T01:48:27.181Z,18.20
2019-01-29T01:50:59.249Z,21.00
2019-01-29T01:53:31.447Z,20.00
2019-01-29T01:56:03.773Z,18.40
2019-01-29T01:58:35.789Z,19.60
2019-01-29T02:01:07.806Z,19.00
2019-01-29T02:03:40.148Z,16.60
2019-01-29T02:06:12.172Z,17.80
2019-01-29T02:08:44.219Z,20.00
2019-01-29T02:11:16.226Z,17.20
2019-01-29T02:13:48.247Z,16.00
2019-01-29T02:16:20.338Z,17.20
2019-01-29T02:18:56.451Z,18.40
2019-01-29T02:21:29.031Z,17.40
2019-01-29T02:24:01.232Z,14.00
2019-01-29T02:26:33.559Z,12.00
2019-01-29T02:29:05.635Z,13.40
2019-01-29T02:31:37.739Z,13.80
2019-01-29T02:34:10.043Z,14.40
2019-01-29T02:36:42.480Z,14.00
2019-01-29T02:39:14.498Z,16.60
2019-01-29T02:41:49.133Z,13.20
2019-01-29T02:44:22.717Z,16.00
2019-01-29T02:46:54.792Z,15.80
2019-01-29T02:49:26.795Z,14.40
2019-01-29T02:51:58.780Z,10.20
2019-01-29T02:54:30.943Z,14.40
2019-01-29T02:57:02.917Z,14.20
2019-01-29T02:59:34.940Z,14.80
2019-01-29T03:02:07.183Z,15.20
2019-01-29T03:04:39.203Z,11.80
2019-01-29T03:07:11.228Z,14.60
2019-01-29T03:09:43.232Z,14.80
2019-01-29T03:12:15.205Z,13.20
2019-01-29T03:14:47.304Z,25.40
2019-01-29T03:17:20.285Z,39.40
2019-01-29T03:19:52.288Z,51.25
2019-01-29T03:22:24.318Z,67.50
2019-01-29T03:24:56.548Z,223.00
2019-01-29T03:27:28.797Z,275.75
2019-01-29T03:30:00.878Z,258.75
2019-01-29T03:32:33.366Z,243.25
2019-01-29T03:35:06.751Z,239.75
2019-01-29T03:37:38.748Z,204.75
2019-01-29T03:40:19.048Z,194.00
2019-01-29T03:42:51.496Z,188.00
2019-01-29T03:45:23.498Z,180.00
2019-01-29T03:47:55.589Z,186.50
2019-01-29T03:50:29.115Z,214.75
2019-01-29T03:53:01.830Z,299.40
2019-01-29T03:55:35.417Z,324.00
2019-01-29T03:58:07.406Z,405.00
2019-01-29T04:00:39.865Z,421.80
2019-01-29T04:03:11.986Z,416.80
2019-01-29T04:05:44.018Z,395.00
2019-01-29T04:08:15.998Z,383.20
2019-01-29T04:10:48.072Z,385.75
2019-01-29T04:13:20.063Z,357.80
2019-01-29T04:15:52.235Z,352.00
2019-01-29T04:18:24.326Z,338.40
2019-01-29T04:20:56.423Z,330.60
2019-01-29T04:23:28.556Z,329.60
2019-01-29T04:26:00.866Z,344.80
2019-01-29T04:28:33.335Z,328.00
2019-01-29T04:31:05.390Z,318.00
2019-01-29T04:33:37.548Z,318.80
2019-01-29T04:36:09.987Z,312.60
2019-01-29T04:38:42.020Z,315.60
2019-01-29T04:41:14.146Z,303.80
2019-01-29T04:43:46.132Z,295.50
2019-01-29T04:46:18.140Z,299.00
2019-01-29T04:48:50.135Z,279.75
2019-01-29T04:51:22.162Z,275.25
2019-01-29T04:53:57.624Z,279.50
2019-01-29T04:56:29.239Z,289.75
2019-01-29T04:59:01.258Z,272.50
2019-01-29T05:01:33.333Z,274.50
2019-01-29T05:04:05.331Z,267.00
2019-01-29T05:06:37.376Z,269.00
2019-01-29T05:09:09.769Z,251.00
2019-01-29T05:11:41.817Z,202.25
2019-01-29T05:14:13.850Z,198.00
2019-01-29T05:16:45.938Z,178.75
2019-01-29T05:19:17.940Z,157.75
2019-01-29T05:21:50.011Z,148.50
2019-01-29T05:24:22.027Z,146.75
2019-01-29T05:26:54.254Z,147.25
2019-01-29T05:29:26.455Z,158.00
2019-01-29T05:31:58.441Z,154.25
2019-01-29T05:34:30.451Z,154.50
2019-01-29T05:37:02.475Z,153.75
2019-01-29T05:39:34.457Z,161.25
2019-01-29T05:42:06.484Z,151.25
2019-01-29T05:44:38.488Z,157.25
2019-01-29T05:47:10.528Z,158.75
2019-01-29T05:49:42.563Z,153.50
2019-01-29T05:52:14.634Z,152.75
2019-01-29T05:54:46.634Z,153.75
2019-01-29T05:57:19.841Z,144.00
2019-01-29T05:59:51.846Z,154.75
2019-01-29T06:02:23.992Z,147.75
2019-01-29T06:04:56.036Z,153.00
2019-01-29T06:07:28.180Z,145.50
2019-01-29T06:10:00.309Z,134.25
2019-01-29T06:12:32.400Z,139.00
2019-01-29T06:15:04.852Z,141.25
2019-01-29T06:17:36.996Z,138.50
2019-01-29T06:20:18.614Z,124.25
2019-01-29T06:22:50.842Z,127.25
2019-01-29T06:25:22.938Z,132.00
2019-01-29T06:27:55.241Z,132.00
2019-01-29T06:30:27.887Z,123.50
2019-01-29T06:32:59.890Z,127.00
2019-01-29T06:35:31.873Z,125.00
2019-01-29T06:38:04.070Z,124.25
2019-01-29T06:40:36.204Z,122.50
2019-01-29T06:43:08.201Z,120.25
2019-01-29T06:45:40.165Z,121.00
2019-01-29T06:48:12.703Z,114.00
2019-01-29T06:50:44.742Z,118.75
2019-01-29T06:53:16.749Z,98.50
2019-01-29T06:55:48.758Z,85.25
2019-01-29T06:58:20.926Z,85.75
2019-01-29T07:00:52.914Z,75.00
2019-01-29T07:03:24.905Z,69.75
2019-01-29T07:05:56.893Z,62.00
2019-01-29T07:08:28.906Z,60.50
2019-01-29T07:11:00.884Z,55.00
2019-01-29T07:13:32.990Z,50.25
2019-01-29T07:16:09.149Z,48.25
2019-01-29T07:18:42.594Z,46.25
2019-01-29T07:21:14.722Z,44.60
2019-01-29T07:23:46.844Z,39.00
2019-01-29T07:26:18.861Z,44.00
2019-01-29T07:28:51.041Z,43.80
2019-01-29T07:31:23.218Z,43.40
2019-01-29T07:33:55.346Z,46.00
2019-01-29T07:36:27.606Z,43.40
2019-01-29T07:38:59.835Z,45.80
2019-01-29T07:41:31.857Z,44.80
2019-01-29T07:44:03.922Z,46.80
2019-01-29T07:46:35.963Z,46.00
2019-01-29T07:49:08.123Z,44.60
2019-01-29T07:51:40.139Z,45.75
2019-01-29T07:54:12.195Z,44.50
2019-01-29T07:56:44.203Z,44.60
2019-01-29T07:59:16.412Z,41.40
2019-01-29T08:01:49.419Z,40.80
2019-01-29T08:04:21.513Z,40.40
2019-01-29T08:06:53.501Z,44.75
2019-01-29T08:09:25.753Z,43.00
2019-01-29T08:11:57.751Z,43.40
2019-01-29T08:14:29.770Z,43.60
2019-01-29T08:17:01.785Z,41.40
2019-01-29T08:19:33.839Z,42.80
2019-01-29T08:22:05.819Z,40.60
2019-01-29T08:24:37.962Z,40.40
2019-01-29T08:27:10.046Z,40.40
2019-01-29T08:29:43.266Z,41.20
2019-01-29T08:32:15.266Z,41.40
2019-01-29T08:34:47.271Z,37.00
2019-01-29T08:37:19.257Z,37.00
2019-01-29T08:39:51.511Z,35.80
2019-01-29T08:42:23.585Z,35.60
2019-01-29T08:44:55.581Z,37.00
2019-01-29T08:47:27.671Z,35.80
2019-01-29T08:49:59.696Z,35.00
2019-01-29T08:52:31.689Z,37.00
2019-01-29T08:55:10.515Z,36.00
2019-01-29T08:57:37.320Z,37.40
2019-01-29T09:00:14.825Z,33.60
2019-01-29T09:02:47.900Z,34.40
2019-01-29T09:05:20.155Z,36.40
2019-01-29T09:07:52.619Z,36.40
2019-01-29T09:10:24.635Z,35.40
2019-01-29T09:12:56.625Z,31.20
2019-01-29T09:15:28.685Z,33.60
2019-01-29T09:18:00.664Z,33.40
2019-01-29T09:20:32.688Z,34.60
2019-01-29T09:23:04.692Z,33.80
2019-01-29T09:25:36.701Z,34.60
2019-01-29T09:28:08.749Z,34.40
2019-01-29T09:30:41.006Z,32.60
2019-01-29T09:33:13.010Z,33.40
2019-01-29T09:35:45.039Z,33.80
2019-01-29T09:38:17.047Z,32.20
2019-01-29T09:40:49.287Z,30.20
2019-01-29T09:43:21.382Z,32.80
2019-01-29T09:45:53.422Z,32.60
2019-01-29T09:48:25.695Z,33.00
2019-01-29T09:50:57.790Z,33.00
2019-01-29T09:53:29.804Z,30.40
2019-01-29T09:56:03.446Z,29.80
2019-01-29T09:58:35.421Z,30.40
2019-01-29T10:01:07.604Z,33.80
2019-01-29T10:03:39.607Z,30.80
2019-01-29T10:06:11.627Z,27.60
2019-01-29T10:08:43.623Z,27.80
2019-01-29T10:11:16.165Z,29.40
2019-01-29T10:13:48.161Z,23.40
2019-01-29T10:16:20.181Z,27.20
2019-01-29T10:18:52.167Z,27.60
2019-01-29T10:21:24.186Z,24.40
2019-01-29T10:23:56.184Z,22.40
2019-01-29T10:26:28.219Z,27.60
2019-01-29T10:29:00.261Z,27.00
2019-01-29T10:31:32.575Z,26.40
2019-01-29T10:34:04.605Z,26.40
2019-01-29T10:36:36.635Z,22.80
2019-01-29T10:39:10.388Z,24.00
2019-01-29T10:41:42.890Z,26.00
2019-01-29T10:44:14.865Z,28.40
2019-01-29T10:46:46.896Z,24.40
2019-01-29T10:49:18.897Z,22.60
2019-01-29T10:51:50.923Z,24.40
2019-01-29T10:54:22.983Z,24.20
2019-01-29T10:56:55.001Z,22.80
2019-01-29T10:59:26.996Z,22.00
2019-01-29T11:01:59.200Z,18.80
2019-01-29T11:04:31.190Z,17.80
2019-01-29T11:07:03.798Z,16.00
2019-01-29T11:09:35.857Z,15.00
2019-01-29T11:12:07.852Z,16.60
2019-01-29T11:14:40.309Z,13.80
2019-01-29T11:17:12.322Z,14.20
2019-01-29T11:19:44.314Z,16.60
2019-01-29T11:22:16.305Z,15.00
2019-01-29T11:24:48.320Z,16.00
2019-01-29T11:27:20.339Z,14.00
2019-01-29T11:29:52.804Z,15.20
2019-01-29T11:32:25.333Z,15.20
2019-01-29T11:34:57.337Z,15.40
2019-01-29T11:37:29.386Z,13.60
2019-01-29T11:40:01.364Z,13.20
2019-01-29T11:42:33.755Z,13.40
2019-01-29T11:45:08.298Z,12.60
2019-01-29T11:47:41.501Z,11.80
2019-01-29T11:50:13.580Z,13.80
2019-01-29T11:52:45.601Z,14.00
2019-01-29T11:55:17.626Z,13.20
2019-01-29T11:57:49.645Z,13.20
2019-01-29T12:00:25.299Z,13.20
2019-01-29T12:02:57.480Z,13.00
2019-01-29T12:05:29.502Z,14.00
2019-01-29T12:08:01.732Z,12.40
2019-01-29T12:10:33.704Z,11.60
2019-01-29T12:13:05.996Z,14.60
2019-01-29T12:15:38.003Z,13.00
2019-01-29T12:18:10.123Z,10.80
2019-01-29T12:20:42.101Z,10.60
2019-01-29T12:23:14.117Z,11.80
2019-01-29T12:25:46.406Z,8.20
2019-01-29T12:28:18.425Z,10.80
2019-01-29T12:30:50.444Z,13.20
2019-01-29T12:33:22.817Z,11.20
2019-01-29T12:35:54.787Z,12.60
2019-01-29T12:38:26.788Z,10.00
2019-01-29T12:40:58.968Z,13.00
2019-01-29T12:43:31.166Z,8.80
2019-01-29T12:46:03.185Z,10.40
2019-01-29T12:48:35.274Z,9.80
2019-01-29T12:51:08.812Z,9.60
2019-01-29T12:53:41.004Z,8.00
2019-01-29T12:56:21.258Z,7.40
2019-01-29T12:58:46.804Z,7.00
2019-01-29T13:01:18.962Z,5.80
2019-01-29T13:03:51.409Z,7.60
2019-01-29T13:06:23.633Z,6.00
2019-01-29T13:08:55.820Z,6.00
2019-01-29T13:11:27.962Z,7.60
2019-01-29T13:14:00.151Z,7.00
2019-01-29T13:16:32.317Z,5.60
2019-01-29T13:19:05.502Z,7.40
2019-01-29T13:21:37.653Z,5.20
2019-01-29T13:24:09.894Z,7.40
2019-01-29T13:26:42.144Z,6.60
2019-01-29T13:29:14.325Z,6.60
2019-01-29T13:31:46.499Z,6.00
2019-01-29T13:34:19.127Z,6.00
2019-01-29T13:36:51.399Z,6.00
2019-01-29T13:39:23.604Z,6.60
2019-01-29T13:41:55.777Z,5.40
2019-01-29T13:44:28.172Z,6.00
2019-01-29T13:47:00.342Z,5.20
2019-01-29T13:49:32.523Z,4.00
2019-01-29T13:52:04.688Z,4.60
2019-01-29T13:54:37.870Z,4.60
2019-01-29T13:57:10.058Z,4.00
2019-01-29T13:59:42.384Z,5.00
2019-01-29T14:02:14.596Z,4.00
2019-01-29T14:04:46.954Z,2.00
2019-01-29T14:07:19.145Z,3.00
2019-01-29T14:09:51.322Z,2.00
2019-01-29T14:12:23.902Z,3.80
2019-01-29T14:14:57.090Z,2.60
2019-01-29T14:17:29.527Z,2.80
2019-01-29T14:20:01.723Z,2.00
2019-01-29T14:22:33.946Z,2.00
2019-01-29T14:25:07.848Z,2.00
2019-01-29T14:27:40.091Z,2.60
2019-01-29T14:30:21.101Z,2.00
2019-01-29T14:32:53.255Z,1.00
2019-01-29T14:35:25.759Z,2.60
2019-01-29T14:38:03.402Z,1.00
2019-01-29T14:40:37.065Z,1.60
2019-01-29T14:43:11.273Z,1.00
2019-01-29T14:45:43.554Z,2.00
2019-01-29T14:48:15.723Z,2.00
2019-01-29T14:50:47.882Z,1.00
2019-01-29T14:53:20.046Z,1.40
2019-01-29T14:55:52.347Z,1.20
2019-01-29T14:58:24.489Z,1.80
2019-01-29T15:00:56.788Z,1.60
2019-01-29T15:03:28.963Z,1.60
2019-01-29T15:06:01.332Z,1.00
2019-01-29T15:08:33.611Z,1.00
2019-01-29T15:11:06.331Z,1.00
2019-01-29T15:13:38.525Z,1.00
2019-01-29T15:16:12.218Z,1.00
2019-01-29T15:18:54.798Z,1.20
2019-01-29T15:21:26.975Z,1.00
2019-01-29T15:23:59.146Z,1.40
2019-01-29T15:26:31.333Z,2.00
2019-01-29T15:29:03.466Z,1.60
2019-01-29T15:31:35.700Z,1.00
2019-01-29T15:34:08.021Z,1.80
2019-01-29T15:36:40.558Z,1.00
2019-01-29T15:39:12.726Z,2.00
2019-01-29T15:41:44.893Z,3.00
2019-01-29T15:44:17.035Z,7.80
2019-01-29T15:46:49.226Z,65.75
2019-01-29T15:49:21.203Z,127.25
2019-01-29T15:51:53.239Z,281.80
2019-01-29T15:54:25.257Z,306.00
2019-01-29T15:56:58.861Z,342.25
2019-01-29T15:59:30.887Z,356.20
2019-01-29T16:02:03.058Z,353.00
2019-01-29T16:04:35.088Z,346.80
2019-01-29T16:07:07.292Z,349.00
2019-01-29T16:09:39.331Z,356.00
2019-01-29T16:12:11.315Z,347.60
2019-01-29T16:14:43.294Z,349.80
2019-01-29T16:17:16.958Z,356.40
2019-01-29T16:19:49.139Z,334.00
2019-01-29T16:22:21.143Z,331.75
2019-01-29T16:24:53.229Z,323.80
2019-01-29T16:27:25.228Z,325.80
2019-01-29T16:29:57.236Z,355.60
2019-01-29T16:32:29.280Z,366.20
2019-01-29T16:35:01.292Z,422.17
2019-01-29T16:37:34.475Z,478.83
2019-01-29T16:40:11.672Z,604.83
2019-01-29T16:42:43.718Z,686.83
2019-01-29T16:45:21.456Z,691.67
2019-01-29T16:47:53.832Z,712.00
2019-01-29T16:50:26.106Z,690.00
2019-01-29T16:52:58.123Z,670.50
2019-01-29T16:55:31.695Z,656.50
2019-01-29T16:58:03.972Z,642.33
2019-01-29T17:00:40.368Z,656.80
2019-01-29T17:03:12.914Z,656.60
2019-01-29T17:05:44.995Z,638.80
2019-01-29T17:08:17.175Z,628.80
2019-01-29T17:10:49.181Z,642.20
2019-01-29T17:13:21.226Z,606.83
2019-01-29T17:15:53.217Z,612.83
2019-01-29T17:18:25.248Z,615.83
2019-01-29T17:20:57.260Z,606.00
2019-01-29T17:23:29.285Z,599.00
2019-01-29T17:26:01.281Z,602.17
2019-01-29T17:28:33.602Z,606.17
2019-01-29T17:31:05.582Z,582.50
2019-01-29T17:33:37.618Z,585.50
2019-01-29T17:36:09.617Z,582.83
2019-01-29T17:38:44.765Z,575.17
2019-01-29T17:41:15.546Z,570.33
2019-01-29T17:43:47.726Z,567.33
2019-01-29T17:46:19.719Z,561.67
2019-01-29T17:48:52.152Z,558.50
2019-01-29T17:51:26.893Z,562.33
2019-01-29T17:53:58.920Z,546.17
2019-01-29T17:56:31.105Z,538.33
2019-01-29T17:59:03.130Z,531.67
2019-01-29T18:01:35.220Z,529.60
2019-01-29T18:04:07.239Z,542.00
2019-01-29T18:06:39.226Z,524.20
2019-01-29T18:09:11.271Z,523.80
2019-01-29T18:11:43.254Z,534.20
2019-01-29T18:14:15.349Z,508.80
2019-01-29T18:16:47.313Z,508.00
2019-01-29T18:19:19.425Z,498.40
2019-01-29T18:21:57.121Z,496.40
2019-01-29T18:24:25.292Z,504.83
2019-01-29T18:26:57.459Z,495.50
2019-01-29T18:29:29.492Z,489.17
2019-01-29T18:32:01.940Z,488.67
2019-01-29T18:34:33.959Z,481.83
2019-01-29T18:37:05.956Z,471.67
2019-01-29T18:39:38.160Z,466.50
2019-01-29T18:42:10.136Z,475.50
2019-01-29T18:44:42.159Z,463.50
2019-01-29T18:47:14.254Z,464.17
2019-01-29T18:49:47.079Z,475.50
2019-01-29T18:52:19.072Z,456.00
2019-01-29T18:54:51.069Z,449.00
2019-01-29T18:57:23.250Z,463.83
2019-01-29T18:59:55.274Z,438.40
2019-01-29T19:02:27.405Z,448.00
2019-01-29T19:04:59.417Z,442.20
2019-01-29T19:07:31.406Z,443.80
2019-01-29T19:10:03.520Z,442.20
2019-01-29T19:12:35.753Z,430.00
2019-01-29T19:15:10.516Z,436.00
2019-01-29T19:17:42.618Z,433.60
2019-01-29T19:20:16.912Z,430.40
2019-01-29T19:22:48.895Z,425.40
2019-01-29T19:25:20.875Z,426.20
2019-01-29T19:27:53.047Z,421.20
2019-01-29T19:30:34.805Z,415.60
2019-01-29T19:33:06.823Z,419.40
2019-01-29T19:35:38.840Z,414.17
2019-01-29T19:38:10.876Z,404.67
2019-01-29T19:40:43.029Z,406.17
2019-01-29T19:43:15.067Z,405.67
2019-01-29T19:45:47.015Z,407.83
2019-01-29T19:48:19.123Z,401.83
2019-01-29T19:53:55.524Z,376.80
2019-01-29T19:56:28.289Z,390.60
2019-01-29T19:59:09.906Z,396.60
2019-01-29T20:01:42.123Z,378.80
2019-01-29T20:04:17.755Z,373.20
2019-01-29T20:06:50.727Z,379.60
2019-01-29T20:09:22.889Z,368.60
2019-01-29T20:12:00.696Z,368.40
2019-01-29T20:14:35.541Z,367.00
2019-01-29T20:17:08.883Z,364.60
2019-01-29T20:19:44.454Z,353.80
2019-01-29T20:22:17.597Z,353.20
2019-01-29T20:24:52.190Z,340.60
2019-01-29T20:27:43.067Z,332.20
2019-01-29T20:30:32.757Z,341.75
2019-01-29T20:33:13.315Z,347.00
2019-01-29T20:35:47.830Z,327.75
2019-01-29T20:38:21.701Z,330.25
2019-01-29T20:40:58.622Z,315.00
2019-01-29T20:43:33.029Z,318.60
2019-01-29T20:46:07.440Z,313.40
2019-01-29T20:48:42.452Z,305.40
2019-01-29T20:51:14.722Z,299.20
2019-01-29T20:53:47.382Z,307.20
2019-01-29T20:56:25.937Z,306.40
2019-01-29T20:58:59.281Z,298.20
2019-01-29T21:01:31.692Z,302.20
2019-01-29T21:04:06.756Z,299.20
2019-01-29T21:06:43.282Z,292.80
2019-01-29T21:09:19.575Z,288.20
2019-01-29T21:11:56.313Z,279.80
2019-01-29T21:14:28.471Z,270.60
2019-01-29T21:17:02.873Z,280.40
2019-01-29T21:19:37.213Z,273.20
2019-01-29T21:22:15.275Z,279.50
2019-01-29T21:24:49.029Z,271.25
2019-01-29T21:27:21.162Z,263.25
2019-01-29T21:29:54.081Z,261.25
2019-01-29T21:32:26.344Z,259.75
2019-01-29T21:34:58.998Z,261.00
2019-01-29T21:40:22.675Z,254.50
2019-01-29T21:42:57.030Z,256.00
2019-01-29T21:45:35.936Z,247.75
2019-01-29T21:48:08.038Z,247.50
2019-01-29T21:50:41.308Z,246.75
2019-01-29T21:53:15.799Z,245.75
2019-01-29T21:55:52.361Z,249.00
2019-01-29T21:58:31.747Z,230.25
2019-01-29T22:01:06.215Z,233.50
2019-01-29T22:03:40.471Z,236.00
2019-01-29T22:06:30.528Z,229.25
2019-01-29T22:09:04.953Z,219.50
2019-01-29T22:11:39.133Z,231.50
2019-01-29T22:14:13.329Z,223.50
2019-01-29T22:16:46.237Z,228.00
2019-01-29T22:19:22.775Z,212.25
2019-01-29T22:21:55.861Z,226.00
2019-01-29T22:24:28.495Z,218.25
2019-01-29T22:27:10.232Z,215.25
2019-01-29T22:29:43.441Z,218.75
2019-01-29T22:32:17.304Z,216.75
2019-01-29T22:34:49.582Z,218.75
2019-01-29T22:37:24.855Z,220.75
2019-01-29T22:39:59.214Z,209.75
2019-01-29T22:42:31.285Z,204.00
2019-01-29T22:45:04.178Z,205.50
2019-01-29T22:47:45.498Z,199.50
2019-01-29T22:50:23.380Z,190.00
2019-01-29T22:52:55.458Z,198.75
2019-01-29T22:55:32.446Z,194.25
2019-01-29T22:58:05.074Z,194.25
2019-01-29T23:01:00.279Z,193.25
2019-01-29T23:03:44.195Z,194.25
2019-01-29T23:06:25.061Z,163.00
2019-01-29T23:08:58.124Z,191.50
2019-01-29T23:11:30.237Z,186.50
2019-01-29T23:14:04.745Z,183.25
2019-01-29T23:16:38.520Z,178.75
2019-01-29T23:19:11.607Z,183.25
2019-01-29T23:21:43.773Z,181.00
2019-01-29T23:24:15.867Z,175.00
2019-01-29T23:26:50.948Z,178.50
2019-01-29T23:29:23.643Z,176.50
2019-01-29T23:31:55.846Z,173.75
2019-01-29T23:34:27.910Z,173.00
2019-01-29T23:37:00.797Z,170.75
2019-01-29T23:39:51.768Z,174.50
2019-01-29T23:42:25.792Z,170.50
2019-01-29T23:44:58.656Z,157.75
2019-01-29T23:47:32.209Z,166.75
2019-01-29T23:50:06.237Z,168.50
2019-01-29T23:52:39.389Z,164.50
2019-01-29T23:55:16.404Z,153.50
